sensor_id;sensor_type;location;lat;lon;timestamp;temperature;humidity
4306;DHT22;2166;49.926;8.608;2023-02-03T00:00:18;7.80;80.50
4306;DHT22;2166;49.926;8.608;2023-02-03T00:02:46;7.80;80.40
4306;DHT22;2166;49.926;8.608;2023-02-03T00:05:16;7.80;80.60
4306;DHT22;2166;49.926;8.608;2023-02-03T00:07:44;7.80;80.50
4306;DHT22;2166;49.926;8.608;2023-02-03T00:10:12;7.90;80.40
4306;DHT22;2166;49.926;8.608;2023-02-03T00:12:41;7.90;80.30
4306;DHT22;2166;49.926;8.608;2023-02-03T00:15:10;8.00;80.10
4306;DHT22;2166;49.926;8.608;2023-02-03T00:17:38;8.00;80.10
4306;DHT22;2166;49.926;8.608;2023-02-03T00:20:06;8.00;80.20
4306;DHT22;2166;49.926;8.608;2023-02-03T00:22:36;7.90;80.30
4306;DHT22;2166;49.926;8.608;2023-02-03T00:25:04;7.90;80.40
4306;DHT22;2166;49.926;8.608;2023-02-03T00:27:32;7.90;80.50
4306;DHT22;2166;49.926;8.608;2023-02-03T00:30:01;7.80;80.60
4306;DHT22;2166;49.926;8.608;2023-02-03T00:32:29;7.70;80.70
4306;DHT22;2166;49.926;8.608;2023-02-03T00:34:58;7.70;80.90
4306;DHT22;2166;49.926;8.608;2023-02-03T00:37:26;7.70;80.90
4306;DHT22;2166;49.926;8.608;2023-02-03T00:39:56;7.70;80.90
4306;DHT22;2166;49.926;8.608;2023-02-03T00:42:25;7.70;80.90
4306;DHT22;2166;49.926;8.608;2023-02-03T00:44:53;7.80;80.90
4306;DHT22;2166;49.926;8.608;2023-02-03T00:47:21;7.80;80.80
4306;DHT22;2166;49.926;8.608;2023-02-03T00:49:49;7.80;80.70
4306;DHT22;2166;49.926;8.608;2023-02-03T00:52:18;7.90;80.70
4306;DHT22;2166;49.926;8.608;2023-02-03T00:54:47;7.90;80.60
4306;DHT22;2166;49.926;8.608;2023-02-03T00:57:20;7.90;80.60
4306;DHT22;2166;49.926;8.608;2023-02-03T00:59:48;7.90;80.60
4306;DHT22;2166;49.926;8.608;2023-02-03T01:02:17;7.90;80.60
4306;DHT22;2166;49.926;8.608;2023-02-03T01:04:45;7.90;80.50
4306;DHT22;2166;49.926;8.608;2023-02-03T01:07:13;7.90;80.60
4306;DHT22;2166;49.926;8.608;2023-02-03T01:09:42;7.80;80.60
4306;DHT22;2166;49.926;8.608;2023-02-03T01:12:10;7.70;80.70
4306;DHT22;2166;49.926;8.608;2023-02-03T01:14:41;7.60;80.90
4306;DHT22;2166;49.926;8.608;2023-02-03T01:17:09;7.50;81.10
4306;DHT22;2166;49.926;8.608;2023-02-03T01:19:38;7.40;81.30
4306;DHT22;2166;49.926;8.608;2023-02-03T01:22:06;7.30;81.40
4306;DHT22;2166;49.926;8.608;2023-02-03T01:24:36;7.30;81.60
4306;DHT22;2166;49.926;8.608;2023-02-03T01:27:04;7.40;81.50
4306;DHT22;2166;49.926;8.608;2023-02-03T01:29:32;7.50;81.30
4306;DHT22;2166;49.926;8.608;2023-02-03T01:32:02;7.60;81.20
4306;DHT22;2166;49.926;8.608;2023-02-03T01:34:31;7.70;81.00
4306;DHT22;2166;49.926;8.608;2023-02-03T01:36:59;7.70;81.00
4306;DHT22;2166;49.926;8.608;2023-02-03T01:39:27;7.70;81.00
4306;DHT22;2166;49.926;8.608;2023-02-03T01:41:55;7.80;80.90
4306;DHT22;2166;49.926;8.608;2023-02-03T01:44:42;7.80;80.90
4306;DHT22;2166;49.926;8.608;2023-02-03T01:47:14;7.80;80.90
4306;DHT22;2166;49.926;8.608;2023-02-03T01:49:44;7.90;80.80
4306;DHT22;2166;49.926;8.608;2023-02-03T01:52:13;7.90;80.70
4306;DHT22;2166;49.926;8.608;2023-02-03T01:54:42;7.90;80.70
4306;DHT22;2166;49.926;8.608;2023-02-03T01:57:12;7.90;80.60
4306;DHT22;2166;49.926;8.608;2023-02-03T01:59:42;7.90;80.60
4306;DHT22;2166;49.926;8.608;2023-02-03T02:02:10;7.90;80.60
4306;DHT22;2166;49.926;8.608;2023-02-03T02:04:47;7.90;80.60
4306;DHT22;2166;49.926;8.608;2023-02-03T02:07:17;7.90;80.70
4306;DHT22;2166;49.926;8.608;2023-02-03T02:09:45;8.00;80.50
4306;DHT22;2166;49.926;8.608;2023-02-03T02:12:13;8.00;80.50
4306;DHT22;2166;49.926;8.608;2023-02-03T02:14:41;8.00;80.40
4306;DHT22;2166;49.926;8.608;2023-02-03T02:17:11;8.10;80.40
4306;DHT22;2166;49.926;8.608;2023-02-03T02:19:51;8.10;80.30
4306;DHT22;2166;49.926;8.608;2023-02-03T02:22:19;8.10;80.30
4306;DHT22;2166;49.926;8.608;2023-02-03T02:24:57;8.10;80.30
4306;DHT22;2166;49.926;8.608;2023-02-03T02:27:47;8.10;80.30
4306;DHT22;2166;49.926;8.608;2023-02-03T02:30:27;8.10;80.30
4306;DHT22;2166;49.926;8.608;2023-02-03T02:33:02;8.10;80.40
4306;DHT22;2166;49.926;8.608;2023-02-03T02:35:34;8.10;80.40
4306;DHT22;2166;49.926;8.608;2023-02-03T02:38:03;8.10;80.30
4306;DHT22;2166;49.926;8.608;2023-02-03T02:40:32;8.20;80.20
4306;DHT22;2166;49.926;8.608;2023-02-03T02:43:07;8.20;80.20
4306;DHT22;2166;49.926;8.608;2023-02-03T02:45:39;8.30;80.10
4306;DHT22;2166;49.926;8.608;2023-02-03T02:48:11;8.30;80.00
4306;DHT22;2166;49.926;8.608;2023-02-03T02:50:40;8.30;80.00
4306;DHT22;2166;49.926;8.608;2023-02-03T02:53:09;8.30;79.90
4306;DHT22;2166;49.926;8.608;2023-02-03T02:55:39;8.20;80.10
4306;DHT22;2166;49.926;8.608;2023-02-03T02:58:10;8.20;80.20
4306;DHT22;2166;49.926;8.608;2023-02-03T03:00:39;8.20;80.30
4306;DHT22;2166;49.926;8.608;2023-02-03T03:03:15;8.20;80.40
4306;DHT22;2166;49.926;8.608;2023-02-03T03:05:46;8.20;80.50
4306;DHT22;2166;49.926;8.608;2023-02-03T03:08:19;8.10;80.60
4306;DHT22;2166;49.926;8.608;2023-02-03T03:10:48;8.10;80.60
4306;DHT22;2166;49.926;8.608;2023-02-03T03:13:19;8.10;80.70
4306;DHT22;2166;49.926;8.608;2023-02-03T03:15:49;8.00;80.90
4306;DHT22;2166;49.926;8.608;2023-02-03T03:18:20;8.00;81.30
4306;DHT22;2166;49.926;8.608;2023-02-03T03:20:50;7.90;81.60
4306;DHT22;2166;49.926;8.608;2023-02-03T03:23:21;7.90;81.60
4306;DHT22;2166;49.926;8.608;2023-02-03T03:25:52;7.90;81.80
4306;DHT22;2166;49.926;8.608;2023-02-03T03:28:22;7.90;81.90
4306;DHT22;2166;49.926;8.608;2023-02-03T03:30:52;7.90;81.90
4306;DHT22;2166;49.926;8.608;2023-02-03T03:33:22;7.90;81.80
4306;DHT22;2166;49.926;8.608;2023-02-03T03:35:52;7.90;81.70
4306;DHT22;2166;49.926;8.608;2023-02-03T03:38:22;7.90;81.70
4306;DHT22;2166;49.926;8.608;2023-02-03T03:40:53;7.90;81.60
4306;DHT22;2166;49.926;8.608;2023-02-03T03:43:22;8.00;81.60
4306;DHT22;2166;49.926;8.608;2023-02-03T03:45:53;8.00;81.60
4306;DHT22;2166;49.926;8.608;2023-02-03T03:48:25;8.00;81.40
4306;DHT22;2166;49.926;8.608;2023-02-03T03:50:55;8.00;81.40
4306;DHT22;2166;49.926;8.608;2023-02-03T03:53:24;8.00;81.40
4306;DHT22;2166;49.926;8.608;2023-02-03T03:55:54;8.00;81.40
4306;DHT22;2166;49.926;8.608;2023-02-03T03:58:24;8.00;81.40
4306;DHT22;2166;49.926;8.608;2023-02-03T04:00:53;8.00;81.40
4306;DHT22;2166;49.926;8.608;2023-02-03T04:03:22;8.00;81.40
4306;DHT22;2166;49.926;8.608;2023-02-03T04:05:53;8.00;81.30
4306;DHT22;2166;49.926;8.608;2023-02-03T04:08:21;8.10;81.20
4306;DHT22;2166;49.926;8.608;2023-02-03T04:10:49;8.10;81.20
4306;DHT22;2166;49.926;8.608;2023-02-03T04:13:17;8.10;81.20
4306;DHT22;2166;49.926;8.608;2023-02-03T04:15:46;8.10;81.00
4306;DHT22;2166;49.926;8.608;2023-02-03T04:18:14;8.10;80.90
4306;DHT22;2166;49.926;8.608;2023-02-03T04:20:42;8.10;80.90
4306;DHT22;2166;49.926;8.608;2023-02-03T04:23:11;8.10;81.00
4306;DHT22;2166;49.926;8.608;2023-02-03T04:25:39;8.00;81.00
4306;DHT22;2166;49.926;8.608;2023-02-03T04:28:07;8.10;80.90
4306;DHT22;2166;49.926;8.608;2023-02-03T04:30:36;8.10;80.90
4306;DHT22;2166;49.926;8.608;2023-02-03T04:33:04;8.10;80.80
4306;DHT22;2166;49.926;8.608;2023-02-03T04:35:34;8.10;80.70
4306;DHT22;2166;49.926;8.608;2023-02-03T04:38:03;8.20;80.60
4306;DHT22;2166;49.926;8.608;2023-02-03T04:40:32;8.20;80.50
4306;DHT22;2166;49.926;8.608;2023-02-03T04:43:04;8.20;80.40
4306;DHT22;2166;49.926;8.608;2023-02-03T04:45:32;8.20;80.30
4306;DHT22;2166;49.926;8.608;2023-02-03T04:48:00;8.20;80.20
4306;DHT22;2166;49.926;8.608;2023-02-03T04:50:30;8.20;80.30
4306;DHT22;2166;49.926;8.608;2023-02-03T04:52:58;8.20;80.20
4306;DHT22;2166;49.926;8.608;2023-02-03T04:55:26;8.20;80.20
4306;DHT22;2166;49.926;8.608;2023-02-03T04:57:56;8.20;80.10
4306;DHT22;2166;49.926;8.608;2023-02-03T05:00:24;8.30;80.00
4306;DHT22;2166;49.926;8.608;2023-02-03T05:02:53;8.30;80.00
4306;DHT22;2166;49.926;8.608;2023-02-03T05:05:21;8.30;79.90
4306;DHT22;2166;49.926;8.608;2023-02-03T05:07:49;8.30;80.00
4306;DHT22;2166;49.926;8.608;2023-02-03T05:10:17;8.30;80.10
4306;DHT22;2166;49.926;8.608;2023-02-03T05:12:45;8.20;80.20
4306;DHT22;2166;49.926;8.608;2023-02-03T05:15:14;8.20;80.30
4306;DHT22;2166;49.926;8.608;2023-02-03T05:17:42;8.20;80.50
4306;DHT22;2166;49.926;8.608;2023-02-03T05:20:10;8.10;80.60
4306;DHT22;2166;49.926;8.608;2023-02-03T05:22:38;8.00;80.70
4306;DHT22;2166;49.926;8.608;2023-02-03T05:25:07;8.00;80.70
4306;DHT22;2166;49.926;8.608;2023-02-03T05:27:36;8.00;80.70
4306;DHT22;2166;49.926;8.608;2023-02-03T05:30:05;8.00;80.70
4306;DHT22;2166;49.926;8.608;2023-02-03T05:32:34;8.00;80.70
4306;DHT22;2166;49.926;8.608;2023-02-03T05:35:02;8.00;80.70
4306;DHT22;2166;49.926;8.608;2023-02-03T05:37:30;8.10;80.60
4306;DHT22;2166;49.926;8.608;2023-02-03T05:39:58;8.10;80.60
4306;DHT22;2166;49.926;8.608;2023-02-03T05:42:53;8.10;80.60
4306;DHT22;2166;49.926;8.608;2023-02-03T05:45:21;8.10;80.60
4306;DHT22;2166;49.926;8.608;2023-02-03T05:47:49;8.10;80.60
4306;DHT22;2166;49.926;8.608;2023-02-03T05:50:18;8.10;80.60
4306;DHT22;2166;49.926;8.608;2023-02-03T05:52:49;8.10;80.60
4306;DHT22;2166;49.926;8.608;2023-02-03T05:55:18;8.00;80.70
4306;DHT22;2166;49.926;8.608;2023-02-03T05:57:46;8.00;80.90
4306;DHT22;2166;49.926;8.608;2023-02-03T06:00:17;8.00;81.00
4306;DHT22;2166;49.926;8.608;2023-02-03T06:02:49;8.00;81.00
4306;DHT22;2166;49.926;8.608;2023-02-03T06:05:18;8.00;81.00
4306;DHT22;2166;49.926;8.608;2023-02-03T06:07:46;8.00;80.90
4306;DHT22;2166;49.926;8.608;2023-02-03T06:10:15;8.00;80.90
4306;DHT22;2166;49.926;8.608;2023-02-03T06:12:44;7.90;81.10
4306;DHT22;2166;49.926;8.608;2023-02-03T06:15:13;7.90;81.10
4306;DHT22;2166;49.926;8.608;2023-02-03T06:17:44;7.90;81.10
4306;DHT22;2166;49.926;8.608;2023-02-03T06:20:15;7.90;81.20
4306;DHT22;2166;49.926;8.608;2023-02-03T06:22:44;7.90;81.20
4306;DHT22;2166;49.926;8.608;2023-02-03T06:25:13;7.90;81.30
4306;DHT22;2166;49.926;8.608;2023-02-03T06:27:41;7.90;81.20
4306;DHT22;2166;49.926;8.608;2023-02-03T06:30:10;7.80;81.30
4306;DHT22;2166;49.926;8.608;2023-02-03T06:32:38;7.80;81.30
4306;DHT22;2166;49.926;8.608;2023-02-03T06:35:08;7.80;81.40
4306;DHT22;2166;49.926;8.608;2023-02-03T06:37:37;7.80;81.50
4306;DHT22;2166;49.926;8.608;2023-02-03T06:40:06;7.80;81.60
4306;DHT22;2166;49.926;8.608;2023-02-03T06:42:34;7.70;81.60
4306;DHT22;2166;49.926;8.608;2023-02-03T06:45:02;7.80;81.60
4306;DHT22;2166;49.926;8.608;2023-02-03T06:47:30;7.80;81.50
4306;DHT22;2166;49.926;8.608;2023-02-03T06:49:58;7.80;81.40
4306;DHT22;2166;49.926;8.608;2023-02-03T06:52:28;7.80;81.30
4306;DHT22;2166;49.926;8.608;2023-02-03T06:54:56;7.80;81.20
4306;DHT22;2166;49.926;8.608;2023-02-03T06:57:24;7.80;81.20
4306;DHT22;2166;49.926;8.608;2023-02-03T06:59:53;7.90;81.20
4306;DHT22;2166;49.926;8.608;2023-02-03T07:02:21;7.90;81.10
4306;DHT22;2166;49.926;8.608;2023-02-03T07:04:51;7.90;81.00
4306;DHT22;2166;49.926;8.608;2023-02-03T07:07:19;8.00;80.80
4306;DHT22;2166;49.926;8.608;2023-02-03T07:09:49;8.00;80.60
4306;DHT22;2166;49.926;8.608;2023-02-03T07:12:17;8.10;80.50
4306;DHT22;2166;49.926;8.608;2023-02-03T07:14:45;8.10;80.40
4306;DHT22;2166;49.926;8.608;2023-02-03T07:17:13;8.10;80.30
4306;DHT22;2166;49.926;8.608;2023-02-03T07:19:41;8.10;80.30
4306;DHT22;2166;49.926;8.608;2023-02-03T07:22:13;8.10;80.20
4306;DHT22;2166;49.926;8.608;2023-02-03T07:24:41;8.20;80.10
4306;DHT22;2166;49.926;8.608;2023-02-03T07:27:12;8.20;80.10
4306;DHT22;2166;49.926;8.608;2023-02-03T07:29:42;8.20;79.90
4306;DHT22;2166;49.926;8.608;2023-02-03T07:32:10;8.20;79.90
4306;DHT22;2166;49.926;8.608;2023-02-03T07:34:38;8.20;79.90
4306;DHT22;2166;49.926;8.608;2023-02-03T07:37:06;8.30;79.90
4306;DHT22;2166;49.926;8.608;2023-02-03T07:39:34;8.20;80.00
4306;DHT22;2166;49.926;8.608;2023-02-03T07:42:03;8.20;80.10
4306;DHT22;2166;49.926;8.608;2023-02-03T07:44:37;8.20;80.10
4306;DHT22;2166;49.926;8.608;2023-02-03T07:47:06;8.20;80.10
4306;DHT22;2166;49.926;8.608;2023-02-03T07:49:34;8.10;80.20
4306;DHT22;2166;49.926;8.608;2023-02-03T07:52:02;8.10;80.30
4306;DHT22;2166;49.926;8.608;2023-02-03T07:54:31;8.10;80.20
4306;DHT22;2166;49.926;8.608;2023-02-03T07:56:59;8.20;80.20
4306;DHT22;2166;49.926;8.608;2023-02-03T07:59:28;8.20;80.10
4306;DHT22;2166;49.926;8.608;2023-02-03T08:01:58;8.20;80.00
4306;DHT22;2166;49.926;8.608;2023-02-03T08:04:26;8.20;80.10
4306;DHT22;2166;49.926;8.608;2023-02-03T08:06:54;8.20;80.10
4306;DHT22;2166;49.926;8.608;2023-02-03T08:09:23;8.20;80.00
4306;DHT22;2166;49.926;8.608;2023-02-03T08:11:51;8.30;79.90
4306;DHT22;2166;49.926;8.608;2023-02-03T08:14:20;8.30;79.80
4306;DHT22;2166;49.926;8.608;2023-02-03T08:16:48;8.40;79.70
4306;DHT22;2166;49.926;8.608;2023-02-03T08:19:25;8.40;79.80
4306;DHT22;2166;49.926;8.608;2023-02-03T08:21:55;8.40;79.50
4306;DHT22;2166;49.926;8.608;2023-02-03T08:24:25;8.50;79.30
4306;DHT22;2166;49.926;8.608;2023-02-03T08:26:53;8.50;79.30
4306;DHT22;2166;49.926;8.608;2023-02-03T08:29:21;8.40;79.20
4306;DHT22;2166;49.926;8.608;2023-02-03T08:31:49;8.50;79.30
4306;DHT22;2166;49.926;8.608;2023-02-03T08:34:17;8.50;79.20
4306;DHT22;2166;49.926;8.608;2023-02-03T08:36:47;8.60;79.30
4306;DHT22;2166;49.926;8.608;2023-02-03T08:39:16;8.60;79.00
4306;DHT22;2166;49.926;8.608;2023-02-03T08:41:44;8.60;79.00
4306;DHT22;2166;49.926;8.608;2023-02-03T08:44:12;8.70;79.00
4306;DHT22;2166;49.926;8.608;2023-02-03T08:46:42;8.70;78.70
4306;DHT22;2166;49.926;8.608;2023-02-03T08:49:11;8.80;78.60
4306;DHT22;2166;49.926;8.608;2023-02-03T08:51:41;8.80;78.50
4306;DHT22;2166;49.926;8.608;2023-02-03T08:54:13;8.80;78.40
4306;DHT22;2166;49.926;8.608;2023-02-03T08:56:44;8.80;78.40
4306;DHT22;2166;49.926;8.608;2023-02-03T08:59:14;8.90;78.40
4306;DHT22;2166;49.926;8.608;2023-02-03T09:01:42;8.90;78.10
4306;DHT22;2166;49.926;8.608;2023-02-03T09:04:13;9.00;78.10
4306;DHT22;2166;49.926;8.608;2023-02-03T09:06:44;9.00;77.90
4306;DHT22;2166;49.926;8.608;2023-02-03T09:09:15;9.10;77.80
4306;DHT22;2166;49.926;8.608;2023-02-03T09:11:43;9.20;77.50
4306;DHT22;2166;49.926;8.608;2023-02-03T09:14:11;9.20;77.50
4306;DHT22;2166;49.926;8.608;2023-02-03T09:16:39;9.20;77.50
4306;DHT22;2166;49.926;8.608;2023-02-03T09:19:10;9.20;77.40
4306;DHT22;2166;49.926;8.608;2023-02-03T09:21:39;9.20;77.40
4306;DHT22;2166;49.926;8.608;2023-02-03T09:24:15;9.20;77.50
4306;DHT22;2166;49.926;8.608;2023-02-03T09:26:47;9.10;77.70
4306;DHT22;2166;49.926;8.608;2023-02-03T09:29:15;9.20;77.70
4306;DHT22;2166;49.926;8.608;2023-02-03T09:31:47;9.20;77.70
4306;DHT22;2166;49.926;8.608;2023-02-03T09:34:18;9.20;77.60
4306;DHT22;2166;49.926;8.608;2023-02-03T09:36:49;9.30;77.50
4306;DHT22;2166;49.926;8.608;2023-02-03T09:39:19;9.30;77.20
4306;DHT22;2166;49.926;8.608;2023-02-03T09:41:58;9.20;77.00
4306;DHT22;2166;49.926;8.608;2023-02-03T09:44:29;9.30;77.10
4306;DHT22;2166;49.926;8.608;2023-02-03T09:47:02;9.30;76.60
4306;DHT22;2166;49.926;8.608;2023-02-03T09:49:36;9.40;76.50
4306;DHT22;2166;49.926;8.608;2023-02-03T09:52:07;9.40;76.30
4306;DHT22;2166;49.926;8.608;2023-02-03T09:54:41;9.40;76.40
4306;DHT22;2166;49.926;8.608;2023-02-03T09:57:12;9.40;76.00
4306;DHT22;2166;49.926;8.608;2023-02-03T09:59:41;9.40;76.10
4306;DHT22;2166;49.926;8.608;2023-02-03T10:02:15;9.40;75.80
4306;DHT22;2166;49.926;8.608;2023-02-03T10:04:49;9.50;76.10
4306;DHT22;2166;49.926;8.608;2023-02-03T10:07:20;9.60;76.10
4306;DHT22;2166;49.926;8.608;2023-02-03T10:09:55;9.60;75.70
4306;DHT22;2166;49.926;8.608;2023-02-03T10:15:28;9.70;75.80
4306;DHT22;2166;49.926;8.608;2023-02-03T10:17:59;9.70;75.80
4306;DHT22;2166;49.926;8.608;2023-02-03T10:20:33;9.80;75.70
4306;DHT22;2166;49.926;8.608;2023-02-03T10:23:04;9.80;75.40
4306;DHT22;2166;49.926;8.608;2023-02-03T10:25:36;9.90;75.40
4306;DHT22;2166;49.926;8.608;2023-02-03T10:28:08;9.90;75.50
4306;DHT22;2166;49.926;8.608;2023-02-03T10:30:38;9.90;75.30
4306;DHT22;2166;49.926;8.608;2023-02-03T10:33:12;9.90;75.30
4306;DHT22;2166;49.926;8.608;2023-02-03T10:35:43;9.90;75.30
4306;DHT22;2166;49.926;8.608;2023-02-03T10:38:17;9.90;75.40
4306;DHT22;2166;49.926;8.608;2023-02-03T10:40:50;9.90;75.00
4306;DHT22;2166;49.926;8.608;2023-02-03T10:43:19;9.90;74.70
4306;DHT22;2166;49.926;8.608;2023-02-03T10:46:05;9.90;75.10
4306;DHT22;2166;49.926;8.608;2023-02-03T10:48:33;9.90;74.90
4306;DHT22;2166;49.926;8.608;2023-02-03T10:51:03;9.80;75.10
4306;DHT22;2166;49.926;8.608;2023-02-03T10:53:31;9.80;74.90
4306;DHT22;2166;49.926;8.608;2023-02-03T10:56:03;9.80;74.80
4306;DHT22;2166;49.926;8.608;2023-02-03T10:58:32;9.80;75.20
4306;DHT22;2166;49.926;8.608;2023-02-03T11:01:06;9.80;75.00
4306;DHT22;2166;49.926;8.608;2023-02-03T11:03:36;9.80;74.90
4306;DHT22;2166;49.926;8.608;2023-02-03T11:06:06;9.80;75.10
4306;DHT22;2166;49.926;8.608;2023-02-03T11:08:35;9.90;74.70
4306;DHT22;2166;49.926;8.608;2023-02-03T11:11:06;9.90;74.70
4306;DHT22;2166;49.926;8.608;2023-02-03T11:13:35;9.90;74.80
4306;DHT22;2166;49.926;8.608;2023-02-03T11:16:03;10.00;74.70
4306;DHT22;2166;49.926;8.608;2023-02-03T11:18:40;10.00;74.80
4306;DHT22;2166;49.926;8.608;2023-02-03T11:21:12;10.10;74.80
4306;DHT22;2166;49.926;8.608;2023-02-03T11:23:45;10.10;74.50
4306;DHT22;2166;49.926;8.608;2023-02-03T11:26:17;10.30;74.60
4306;DHT22;2166;49.926;8.608;2023-02-03T11:28:46;10.40;74.20
4306;DHT22;2166;49.926;8.608;2023-02-03T11:31:17;10.60;74.20
4306;DHT22;2166;49.926;8.608;2023-02-03T11:33:47;10.80;73.90
4306;DHT22;2166;49.926;8.608;2023-02-03T11:36:16;10.90;73.80
4306;DHT22;2166;49.926;8.608;2023-02-03T11:38:44;10.90;73.80
4306;DHT22;2166;49.926;8.608;2023-02-03T11:41:18;11.00;73.70
4306;DHT22;2166;49.926;8.608;2023-02-03T11:43:50;11.10;73.90
4306;DHT22;2166;49.926;8.608;2023-02-03T11:46:23;11.10;73.90
4306;DHT22;2166;49.926;8.608;2023-02-03T11:48:57;11.10;73.80
4306;DHT22;2166;49.926;8.608;2023-02-03T11:51:29;11.00;73.90
4306;DHT22;2166;49.926;8.608;2023-02-03T11:54:05;11.10;73.70
4306;DHT22;2166;49.926;8.608;2023-02-03T11:56:46;11.30;73.90
4306;DHT22;2166;49.926;8.608;2023-02-03T11:59:33;11.30;73.50
4306;DHT22;2166;49.926;8.608;2023-02-03T12:05:05;11.30;73.90
4306;DHT22;2166;49.926;8.608;2023-02-03T12:07:46;11.10;74.20
4306;DHT22;2166;49.926;8.608;2023-02-03T12:10:23;11.00;74.50
4306;DHT22;2166;49.926;8.608;2023-02-03T12:12:58;11.00;74.30
4306;DHT22;2166;49.926;8.608;2023-02-03T12:15:37;11.10;74.60
4306;DHT22;2166;49.926;8.608;2023-02-03T12:18:25;10.90;74.70
4306;DHT22;2166;49.926;8.608;2023-02-03T12:21:07;10.70;75.10
4306;DHT22;2166;49.926;8.608;2023-02-03T12:23:42;10.70;75.00
4306;DHT22;2166;49.926;8.608;2023-02-03T12:26:17;10.80;75.20
4306;DHT22;2166;49.926;8.608;2023-02-03T12:28:55;10.90;75.10
4306;DHT22;2166;49.926;8.608;2023-02-03T12:31:31;11.00;75.10
4306;DHT22;2166;49.926;8.608;2023-02-03T12:34:05;11.00;75.00
4306;DHT22;2166;49.926;8.608;2023-02-03T12:36:37;11.10;74.60
4306;DHT22;2166;49.926;8.608;2023-02-03T12:39:10;11.10;74.60
4306;DHT22;2166;49.926;8.608;2023-02-03T12:41:41;11.20;74.30
4306;DHT22;2166;49.926;8.608;2023-02-03T12:44:16;11.20;74.50
4306;DHT22;2166;49.926;8.608;2023-02-03T12:46:48;11.10;74.30
4306;DHT22;2166;49.926;8.608;2023-02-03T12:49:23;11.10;74.70
4306;DHT22;2166;49.926;8.608;2023-02-03T12:51:54;11.00;74.70
4306;DHT22;2166;49.926;8.608;2023-02-03T12:54:29;10.90;74.90
4306;DHT22;2166;49.926;8.608;2023-02-03T12:57:03;10.80;75.30
4306;DHT22;2166;49.926;8.608;2023-02-03T12:59:35;10.70;75.50
4306;DHT22;2166;49.926;8.608;2023-02-03T13:02:10;10.60;75.50
4306;DHT22;2166;49.926;8.608;2023-02-03T13:04:42;10.60;75.80
4306;DHT22;2166;49.926;8.608;2023-02-03T13:07:13;10.60;75.70
4306;DHT22;2166;49.926;8.608;2023-02-03T13:09:46;10.50;75.80
4306;DHT22;2166;49.926;8.608;2023-02-03T13:12:19;10.40;76.10
4306;DHT22;2166;49.926;8.608;2023-02-03T13:14:55;10.40;76.50
4306;DHT22;2166;49.926;8.608;2023-02-03T13:17:25;10.40;76.70
4306;DHT22;2166;49.926;8.608;2023-02-03T13:19:57;10.30;77.10
4306;DHT22;2166;49.926;8.608;2023-02-03T13:22:26;10.20;76.90
4306;DHT22;2166;49.926;8.608;2023-02-03T13:24:55;10.20;77.10
4306;DHT22;2166;49.926;8.608;2023-02-03T13:27:34;10.20;77.40
4306;DHT22;2166;49.926;8.608;2023-02-03T13:30:16;10.10;77.70
4306;DHT22;2166;49.926;8.608;2023-02-03T13:32:57;10.00;78.10
4306;DHT22;2166;49.926;8.608;2023-02-03T13:35:33;9.90;78.60
4306;DHT22;2166;49.926;8.608;2023-02-03T13:40:52;9.80;78.60
4306;DHT22;2166;49.926;8.608;2023-02-03T13:43:25;9.80;78.50
4306;DHT22;2166;49.926;8.608;2023-02-03T13:46:06;9.80;78.50
4306;DHT22;2166;49.926;8.608;2023-02-03T13:48:39;9.80;78.60
4306;DHT22;2166;49.926;8.608;2023-02-03T13:51:13;9.80;78.50
4306;DHT22;2166;49.926;8.608;2023-02-03T13:53:42;9.80;78.50
4306;DHT22;2166;49.926;8.608;2023-02-03T13:56:17;9.80;78.70
4306;DHT22;2166;49.926;8.608;2023-02-03T13:59:03;9.80;78.90
4306;DHT22;2166;49.926;8.608;2023-02-03T14:01:35;9.80;79.00
4306;DHT22;2166;49.926;8.608;2023-02-03T14:04:05;9.60;79.20
4306;DHT22;2166;49.926;8.608;2023-02-03T14:09:34;9.60;79.90
4306;DHT22;2166;49.926;8.608;2023-02-03T14:15:01;9.40;80.20
4306;DHT22;2166;49.926;8.608;2023-02-03T14:20:39;9.40;80.60
4306;DHT22;2166;49.926;8.608;2023-02-03T14:23:10;9.40;80.80
4306;DHT22;2166;49.926;8.608;2023-02-03T14:25:41;9.30;81.00
4306;DHT22;2166;49.926;8.608;2023-02-03T14:28:11;9.20;81.50
4306;DHT22;2166;49.926;8.608;2023-02-03T14:33:43;9.20;81.90
4306;DHT22;2166;49.926;8.608;2023-02-03T14:39:03;9.20;82.10
4306;DHT22;2166;49.926;8.608;2023-02-03T14:41:36;9.20;82.10
4306;DHT22;2166;49.926;8.608;2023-02-03T14:44:12;9.20;82.10
4306;DHT22;2166;49.926;8.608;2023-02-03T14:46:50;9.10;82.10
4306;DHT22;2166;49.926;8.608;2023-02-03T14:49:28;9.10;82.30
4306;DHT22;2166;49.926;8.608;2023-02-03T14:52:04;9.10;82.50
4306;DHT22;2166;49.926;8.608;2023-02-03T14:57:24;9.00;82.60
4306;DHT22;2166;49.926;8.608;2023-02-03T14:59:57;9.10;82.90
4306;DHT22;2166;49.926;8.608;2023-02-03T15:02:27;9.00;82.80
4306;DHT22;2166;49.926;8.608;2023-02-03T15:07:46;9.00;82.90
4306;DHT22;2166;49.926;8.608;2023-02-03T15:10:15;8.90;83.10
4306;DHT22;2166;49.926;8.608;2023-02-03T15:12:47;8.90;83.10
4306;DHT22;2166;49.926;8.608;2023-02-03T15:15:19;8.90;83.10
4306;DHT22;2166;49.926;8.608;2023-02-03T15:17:49;8.90;83.30
4306;DHT22;2166;49.926;8.608;2023-02-03T15:20:32;8.90;83.10
4306;DHT22;2166;49.926;8.608;2023-02-03T15:23:02;8.90;83.30
4306;DHT22;2166;49.926;8.608;2023-02-03T15:25:30;8.90;83.30
4306;DHT22;2166;49.926;8.608;2023-02-03T15:28:21;8.90;83.10
4306;DHT22;2166;49.926;8.608;2023-02-03T15:30:51;8.90;83.20
4306;DHT22;2166;49.926;8.608;2023-02-03T15:33:25;8.90;83.20
4306;DHT22;2166;49.926;8.608;2023-02-03T15:36:02;8.90;83.30
4306;DHT22;2166;49.926;8.608;2023-02-03T15:38:33;8.90;83.30
4306;DHT22;2166;49.926;8.608;2023-02-03T15:41:03;8.90;83.10
4306;DHT22;2166;49.926;8.608;2023-02-03T15:43:37;8.90;83.10
4306;DHT22;2166;49.926;8.608;2023-02-03T15:46:06;8.90;82.80
4306;DHT22;2166;49.926;8.608;2023-02-03T15:48:39;8.80;83.10
4306;DHT22;2166;49.926;8.608;2023-02-03T15:51:09;8.80;83.10
4306;DHT22;2166;49.926;8.608;2023-02-03T15:53:43;8.80;83.20
4306;DHT22;2166;49.926;8.608;2023-02-03T15:56:18;8.80;83.10
4306;DHT22;2166;49.926;8.608;2023-02-03T15:58:49;8.80;83.10
4306;DHT22;2166;49.926;8.608;2023-02-03T16:01:18;8.80;83.20
4306;DHT22;2166;49.926;8.608;2023-02-03T16:03:49;8.80;83.20
4306;DHT22;2166;49.926;8.608;2023-02-03T16:06:22;8.80;83.30
4306;DHT22;2166;49.926;8.608;2023-02-03T16:08:53;8.70;83.30
4306;DHT22;2166;49.926;8.608;2023-02-03T16:11:22;8.80;83.40
4306;DHT22;2166;49.926;8.608;2023-02-03T16:13:52;8.80;83.40
4306;DHT22;2166;49.926;8.608;2023-02-03T16:16:22;8.80;83.40
4306;DHT22;2166;49.926;8.608;2023-02-03T16:19:01;8.80;83.40
4306;DHT22;2166;49.926;8.608;2023-02-03T16:21:32;8.80;83.30
4306;DHT22;2166;49.926;8.608;2023-02-03T16:24:01;8.80;83.40
4306;DHT22;2166;49.926;8.608;2023-02-03T16:26:31;8.80;83.40
4306;DHT22;2166;49.926;8.608;2023-02-03T16:29:13;8.80;83.40
4306;DHT22;2166;49.926;8.608;2023-02-03T16:31:59;8.80;83.50
4306;DHT22;2166;49.926;8.608;2023-02-03T16:34:45;8.80;83.50
4306;DHT22;2166;49.926;8.608;2023-02-03T16:37:32;8.80;83.50
4306;DHT22;2166;49.926;8.608;2023-02-03T16:40:20;8.80;83.70
4306;DHT22;2166;49.926;8.608;2023-02-03T16:43:08;8.80;83.70
4306;DHT22;2166;49.926;8.608;2023-02-03T16:45:57;8.70;83.70
4306;DHT22;2166;49.926;8.608;2023-02-03T16:48:44;8.70;83.70
4306;DHT22;2166;49.926;8.608;2023-02-03T16:51:33;8.70;83.80
4306;DHT22;2166;49.926;8.608;2023-02-03T16:54:06;8.70;83.80
4306;DHT22;2166;49.926;8.608;2023-02-03T16:56:35;8.70;83.30
4306;DHT22;2166;49.926;8.608;2023-02-03T16:59:04;8.70;83.30
4306;DHT22;2166;49.926;8.608;2023-02-03T17:01:34;8.70;83.30
4306;DHT22;2166;49.926;8.608;2023-02-03T17:04:03;8.70;83.30
4306;DHT22;2166;49.926;8.608;2023-02-03T17:06:32;8.70;83.30
4306;DHT22;2166;49.926;8.608;2023-02-03T17:09:00;8.70;83.30